createdAt,value
2022-10-08T00:01:14.821Z,95477.52
2022-10-08T00:03:44.694Z,95478.06
2022-10-08T00:06:15.001Z,95478.64
2022-10-08T00:08:46.809Z,95473.02
2022-10-08T00:11:19.042Z,95472.92
2022-10-08T00:13:48.439Z,95473.35
2022-10-08T00:16:21.936Z,95471.15
2022-10-08T00:18:51.036Z,95473.09
2022-10-08T00:21:28.285Z,95470.98
2022-10-08T00:23:55.067Z,95467.77
2022-10-08T00:26:24.560Z,95465.02
2022-10-08T00:28:54.043Z,95462.20
2022-10-08T00:31:26.220Z,95462.94
2022-10-08T00:33:56.650Z,95468.89
2022-10-08T00:36:25.898Z,95464.88
2022-10-08T00:38:57.822Z,95466.70
2022-10-08T00:41:30.548Z,95463.69
2022-10-08T00:44:00.233Z,95467.35
2022-10-08T00:46:35.048Z,95462.11
2022-10-08T00:49:15.572Z,95456.23
2022-10-08T00:51:46.020Z,95452.23
2022-10-08T00:54:13.704Z,95449.25
2022-10-08T00:56:41.753Z,95445.63
2022-10-08T00:59:10.955Z,95445.06
2022-10-08T01:01:41.428Z,95441.20
2022-10-08T01:04:09.566Z,95437.52
2022-10-08T01:07:11.679Z,95436.48
2022-10-08T01:09:53.011Z,95430.70
2022-10-08T01:12:31.490Z,95428.15
2022-10-08T01:15:09.507Z,95431.05
2022-10-08T01:18:13.641Z,95432.23
2022-10-08T01:20:40.267Z,95425.27
2022-10-08T01:23:46.698Z,95419.24
2022-10-08T01:26:34.732Z,95414.58
2022-10-08T01:29:28.602Z,95410.77
2022-10-08T01:32:18.406Z,95405.34
2022-10-08T01:34:55.075Z,95402.69
2022-10-08T01:37:27.028Z,95399.03
2022-10-08T01:39:57.137Z,95401.67
2022-10-08T01:42:28.168Z,95400.96
2022-10-08T01:45:01.231Z,95400.67
2022-10-08T01:47:31.111Z,95396.95
2022-10-08T01:50:14.110Z,95396.96
2022-10-08T01:52:48.823Z,95398.99
2022-10-08T01:55:22.552Z,95394.54
2022-10-08T01:57:50.545Z,95397.23
2022-10-08T02:00:17.935Z,95394.23
2022-10-08T02:02:45.040Z,95390.48
2022-10-08T02:05:12.180Z,95392.06
2022-10-08T02:07:43.416Z,95390.32
2022-10-08T02:10:14.695Z,95392.52
2022-10-08T02:12:43.066Z,95393.86
2022-10-08T02:15:16.118Z,95393.14
2022-10-08T02:18:07.128Z,95394.98
2022-10-08T02:20:36.670Z,95398.42
2022-10-08T02:23:36.246Z,95394.88
2022-10-08T02:26:09.530Z,95397.39
2022-10-08T02:28:48.538Z,95397.11
2022-10-08T02:31:21.322Z,95399.63
2022-10-08T02:34:00.380Z,95397.02
2022-10-08T02:36:34.271Z,95398.04
2022-10-08T02:39:06.339Z,95398.46
2022-10-08T02:41:41.537Z,95399.56
2022-10-08T02:44:13.118Z,95401.36
2022-10-08T02:46:44.631Z,95405.45
2022-10-08T02:49:21.447Z,95407.31
2022-10-08T02:51:51.341Z,95401.83
2022-10-08T02:54:21.587Z,95404.41
2022-10-08T02:56:54.403Z,95409.77
2022-10-08T02:59:22.750Z,95405.77
2022-10-08T03:01:58.703Z,95409.42
2022-10-08T03:04:28.419Z,95408.10
2022-10-08T03:06:57.465Z,95401.46
2022-10-08T03:09:26.611Z,95407.30
2022-10-08T03:11:54.551Z,95405.37
2022-10-08T03:14:24.158Z,95408.02
2022-10-08T03:16:51.089Z,95399.21
2022-10-08T03:19:19.231Z,95397.15
2022-10-08T03:21:48.546Z,95399.18
2022-10-08T03:24:16.163Z,95395.64
2022-10-08T03:26:42.984Z,95395.27
2022-10-08T03:29:09.898Z,95393.50
2022-10-08T03:31:37.349Z,95387.85
2022-10-08T03:34:04.462Z,95384.52
2022-10-08T03:36:31.521Z,95388.26
2022-10-08T03:38:58.415Z,95389.98
2022-10-08T03:41:25.737Z,95388.52
2022-10-08T03:43:52.446Z,95387.14
2022-10-08T03:46:19.209Z,95386.14
2022-10-08T03:48:49.329Z,95386.23
2022-10-08T03:51:17.044Z,95387.52
2022-10-08T03:53:44.479Z,95389.44
2022-10-08T03:56:21.151Z,95388.97
2022-10-08T03:58:53.659Z,95386.90
2022-10-08T04:01:20.420Z,95383.64
2022-10-08T04:03:47.143Z,95384.42
2022-10-08T04:06:14.729Z,95384.42
2022-10-08T04:08:41.946Z,95383.96
2022-10-08T04:11:18.673Z,95385.27
2022-10-08T04:13:45.963Z,95383.89
2022-10-08T04:16:19.764Z,95390.19
2022-10-08T04:18:47.605Z,95384.94
2022-10-08T04:21:17.411Z,95389.20
2022-10-08T04:23:44.891Z,95384.48
2022-10-08T04:26:13.840Z,95385.79
2022-10-08T04:28:44.435Z,95387.89
2022-10-08T04:31:19.860Z,95383.11
2022-10-08T04:33:47.320Z,95379.87
2022-10-08T04:36:20.431Z,95378.64
2022-10-08T04:38:47.803Z,95374.02
2022-10-08T04:41:17.571Z,95376.12
2022-10-08T04:43:45.726Z,95376.20
2022-10-08T04:46:15.566Z,95377.75
2022-10-08T04:48:55.640Z,95377.08
2022-10-08T04:51:24.885Z,95379.31
2022-10-08T04:53:52.471Z,95378.39
2022-10-08T04:56:22.769Z,95380.01
2022-10-08T04:58:49.891Z,95381.77
2022-10-08T05:01:19.238Z,95382.08
2022-10-08T05:03:48.668Z,95387.11
2022-10-08T05:06:17.353Z,95389.98
2022-10-08T05:08:45.613Z,95391.85
2022-10-08T05:11:13.073Z,95388.98
2022-10-08T05:13:40.423Z,95391.23
2022-10-08T05:16:12.451Z,95392.92
2022-10-08T05:18:41.199Z,95396.02
2022-10-08T05:21:13.362Z,95400.50
2022-10-08T05:23:40.791Z,95404.38
2022-10-08T05:26:16.448Z,95403.30
2022-10-08T05:28:44.403Z,95400.35
2022-10-08T05:31:11.302Z,95405.06
2022-10-08T05:33:38.805Z,95405.54
2022-10-08T05:36:07.943Z,95407.86
2022-10-08T05:38:35.753Z,95402.67
2022-10-08T05:41:11.082Z,95407.55
2022-10-08T05:43:37.838Z,95408.71
2022-10-08T05:46:04.778Z,95406.05
2022-10-08T05:48:31.748Z,95403.97
2022-10-08T05:51:08.086Z,95408.06
2022-10-08T05:53:36.969Z,95408.45
2022-10-08T05:56:06.458Z,95409.84
2022-10-08T05:58:35.359Z,95410.91
2022-10-08T06:01:05.614Z,95408.50
2022-10-08T06:03:32.265Z,95407.82
2022-10-08T06:06:06.373Z,95408.89
2022-10-08T06:08:33.737Z,95408.73
2022-10-08T06:11:00.901Z,95408.98
2022-10-08T06:13:27.863Z,95408.44
2022-10-08T06:15:59.558Z,95410.60
2022-10-08T06:18:29.382Z,95411.76
2022-10-08T06:20:56.646Z,95411.06
2022-10-08T06:23:24.633Z,95412.23
2022-10-08T06:25:51.383Z,95409.66
2022-10-08T06:28:18.220Z,95414.83
2022-10-08T06:30:45.011Z,95413.11
2022-10-08T06:33:11.952Z,95414.49
2022-10-08T06:35:38.843Z,95412.03
2022-10-08T06:38:05.595Z,95411.27
2022-10-08T06:40:39.131Z,95411.42
2022-10-08T06:43:19.717Z,95414.96
2022-10-08T06:45:47.066Z,95412.65
2022-10-08T06:48:14.017Z,95416.35
2022-10-08T06:50:41.575Z,95421.07
2022-10-08T06:53:10.357Z,95421.39
2022-10-08T06:55:37.463Z,95423.02
2022-10-08T06:58:06.221Z,95420.76
2022-10-08T07:00:33.475Z,95422.70
2022-10-08T07:03:00.187Z,95423.75
2022-10-08T07:05:26.878Z,95421.64
2022-10-08T07:07:53.605Z,95422.30
2022-10-08T07:10:20.380Z,95418.05
2022-10-08T07:12:47.300Z,95420.52
2022-10-08T07:15:14.294Z,95416.72
2022-10-08T07:17:41.684Z,95415.77
2022-10-08T07:20:08.562Z,95417.23
2022-10-08T07:22:35.300Z,95419.86
2022-10-08T07:25:02.061Z,95417.68
2022-10-08T07:27:28.761Z,95414.83
2022-10-08T07:29:55.576Z,95408.30
2022-10-08T07:32:22.257Z,95408.34
2022-10-08T07:34:48.873Z,95405.91
2022-10-08T07:37:15.708Z,95406.13
2022-10-08T07:39:42.502Z,95406.98
2022-10-08T07:42:09.207Z,95404.73
2022-10-08T07:44:36.130Z,95397.42
2022-10-08T07:47:02.805Z,95393.40
2022-10-08T07:49:29.451Z,95395.09
2022-10-08T07:51:56.203Z,95390.96
2022-10-08T07:54:23.075Z,95391.34
2022-10-08T07:56:49.784Z,95394.19
2022-10-08T07:59:16.601Z,95391.33
2022-10-08T08:01:43.987Z,95392.68
2022-10-08T08:04:11.558Z,95389.92
2022-10-08T08:06:42.524Z,95389.80
2022-10-08T08:09:10.357Z,95386.91
2022-10-08T08:11:37.523Z,95383.67
2022-10-08T08:14:04.247Z,95380.30
2022-10-08T08:16:30.982Z,95380.94
2022-10-08T08:19:00.143Z,95377.80
2022-10-08T08:21:29.735Z,95381.45
2022-10-08T08:23:58.777Z,95376.81
2022-10-08T08:26:29.282Z,95375.91
2022-10-08T08:28:59.009Z,95375.74
2022-10-08T08:31:28.739Z,95370.53
2022-10-08T08:33:58.971Z,95369.73
2022-10-08T08:36:28.578Z,95366.96
2022-10-08T08:38:56.150Z,95363.56
2022-10-08T08:41:56.920Z,95373.81
2022-10-08T08:44:43.317Z,95366.11
2022-10-08T08:47:24.295Z,95365.39
2022-10-08T08:49:57.606Z,95366.21
2022-10-08T08:52:34.010Z,95363.23
2022-10-08T08:55:01.566Z,95361.98
2022-10-08T08:57:37.753Z,95361.59
2022-10-08T09:00:15.796Z,95360.56
2022-10-08T09:02:52.757Z,95357.79
2022-10-08T09:05:20.783Z,95356.52
2022-10-08T09:07:59.519Z,95356.16
2022-10-08T09:10:48.429Z,95358.02
2022-10-08T09:13:21.320Z,95354.81
2022-10-08T09:15:48.253Z,95349.12
2022-10-08T09:18:16.801Z,95343.79
2022-10-08T09:20:44.720Z,95346.84
2022-10-08T09:23:15.960Z,95348.38
2022-10-08T09:25:44.294Z,95346.70
2022-10-08T09:28:13.335Z,95341.92
2022-10-08T09:30:45.111Z,95342.44
2022-10-08T09:33:18.791Z,95333.82
2022-10-08T09:35:49.251Z,95336.27
2022-10-08T09:38:35.769Z,95332.42
2022-10-08T09:41:06.906Z,95323.89
2022-10-08T09:43:36.649Z,95321.05
2022-10-08T09:46:12.321Z,95320.78
2022-10-08T09:48:39.832Z,95318.53
2022-10-08T09:51:16.865Z,95311.52
2022-10-08T09:53:58.697Z,95310.45
2022-10-08T09:56:31.201Z,95309.55
2022-10-08T09:59:04.178Z,95307.15
2022-10-08T10:01:31.771Z,95306.39
2022-10-08T10:04:02.192Z,95304.65
2022-10-08T10:06:36.789Z,95303.83
2022-10-08T10:09:21.981Z,95300.34
2022-10-08T10:11:53.870Z,95298.80
2022-10-08T10:14:29.862Z,95291.39
2022-10-08T10:17:05.144Z,95288.94
2022-10-08T10:19:47.146Z,95283.46
2022-10-08T10:22:28.410Z,95278.20
2022-10-08T10:25:17.305Z,95278.73
2022-10-08T10:28:05.364Z,95275.04
2022-10-08T10:30:42.185Z,95274.38
2022-10-08T10:33:18.397Z,95271.30
2022-10-08T10:35:50.700Z,95266.16
2022-10-08T10:38:24.211Z,95266.52
2022-10-08T10:41:17.181Z,95264.53
2022-10-08T10:43:57.848Z,95263.52
2022-10-08T10:46:37.795Z,95262.23
2022-10-08T10:49:23.136Z,95252.96
2022-10-08T10:52:05.218Z,95251.88
2022-10-08T10:55:02.919Z,95249.33
2022-10-08T10:57:51.073Z,95240.91
2022-10-08T11:00:35.055Z,95233.80
2022-10-08T11:03:16.714Z,95226.83
2022-10-08T11:05:47.558Z,95225.02
2022-10-08T11:08:17.795Z,95218.08
2022-10-08T11:11:19.698Z,95213.98
2022-10-08T11:14:06.022Z,95206.84
2022-10-08T11:16:41.720Z,95205.34
2022-10-08T11:19:39.244Z,95199.08
2022-10-08T11:22:24.821Z,95194.34
2022-10-08T11:25:19.911Z,95191.11
2022-10-08T11:27:58.920Z,95181.90
2022-10-08T11:30:35.190Z,95180.03
2022-10-08T11:33:03.678Z,95173.11
2022-10-08T11:35:53.188Z,95170.56
2022-10-08T11:38:43.031Z,95168.78
2022-10-08T11:41:29.782Z,95167.23
2022-10-08T11:44:02.589Z,95159.96
2022-10-08T11:46:36.846Z,95159.50
2022-10-08T11:49:09.792Z,95157.55
2022-10-08T11:51:39.050Z,95153.75
2022-10-08T11:54:25.963Z,95147.22
2022-10-08T11:57:20.433Z,95143.09
2022-10-08T11:59:52.992Z,95139.92
2022-10-08T12:02:37.683Z,95137.45
2022-10-08T12:05:23.306Z,95133.13
2022-10-08T12:07:54.872Z,95130.29
2022-10-08T12:10:40.600Z,95127.07
2022-10-08T12:13:14.072Z,95129.45
2022-10-08T12:15:44.507Z,95128.60
2022-10-08T12:18:11.338Z,95122.88
2022-10-08T12:20:40.048Z,95126.77
2022-10-08T12:23:09.837Z,95124.15
2022-10-08T12:26:09.138Z,95124.16
2022-10-08T12:28:35.891Z,95119.81
2022-10-08T12:31:15.865Z,95112.63
2022-10-08T12:33:42.638Z,95106.20
2022-10-08T12:36:23.781Z,95104.56
2022-10-08T12:39:21.345Z,95101.01
2022-10-08T12:42:30.727Z,95100.29
2022-10-08T12:45:07.272Z,95094.63
2022-10-08T12:47:43.359Z,95096.94
2022-10-08T12:50:39.560Z,95092.37
2022-10-08T12:53:08.059Z,95088.85
2022-10-08T12:55:44.607Z,95086.11
2022-10-08T12:58:17.957Z,95089.17
2022-10-08T13:00:50.113Z,95087.42
2022-10-08T13:03:18.383Z,95087.09
2022-10-08T13:05:45.165Z,95087.42
2022-10-08T13:08:33.074Z,95084.37
2022-10-08T13:11:03.106Z,95083.28
2022-10-08T13:13:40.439Z,95084.20
2022-10-08T13:16:11.254Z,95080.14
2022-10-08T13:18:41.971Z,95083.71
2022-10-08T13:21:36.810Z,95081.05
2022-10-08T13:24:12.573Z,95082.51
2022-10-08T13:26:48.446Z,95078.75
2022-10-08T13:30:27.282Z,95076.77
2022-10-08T13:51:14.065Z,95062.62
2022-10-08T13:55:12.592Z,95060.85
2022-10-08T14:08:33.400Z,95048.71
2022-10-08T14:11:15.387Z,95048.01
2022-10-08T14:14:03.753Z,95045.11
2022-10-08T14:16:47.650Z,95048.25
2022-10-08T14:20:06.267Z,95045.52
2022-10-08T14:25:33.409Z,95037.60
2022-10-08T14:28:01.010Z,95037.73
2022-10-08T14:30:28.240Z,95037.73
2022-10-08T14:32:55.279Z,95038.91
2022-10-08T14:35:22.446Z,95037.30
2022-10-08T14:37:55.883Z,95039.56
2022-10-08T14:40:23.144Z,95035.97
2022-10-08T14:42:50.706Z,95036.79
2022-10-08T14:45:17.886Z,95039.39
2022-10-08T14:47:44.799Z,95035.38
2022-10-08T14:50:13.393Z,95036.95
2022-10-08T14:52:44.065Z,95040.47
2022-10-08T14:55:12.112Z,95040.85
2022-10-08T14:57:38.872Z,95042.15
2022-10-08T15:00:06.585Z,95040.19
2022-10-08T15:07:00.783Z,95043.06
2022-10-08T15:10:24.399Z,95045.13
2022-10-08T15:27:57.677Z,95049.00
2022-10-08T15:34:48.642Z,95042.73
2022-10-08T15:37:15.641Z,95041.30
2022-10-08T15:39:42.386Z,95039.08
2022-10-08T15:42:59.369Z,95041.95
2022-10-08T15:45:35.338Z,95046.15
2022-10-08T15:48:02.136Z,95048.10
2022-10-08T15:51:03.550Z,95044.80
2022-10-08T15:53:42.968Z,95048.70
2022-10-08T15:59:08.817Z,95050.22
2022-10-08T16:07:32.276Z,95058.96
2022-10-08T16:10:01.590Z,95058.99
2022-10-08T16:12:28.812Z,95059.13
2022-10-08T16:15:03.738Z,95063.30
2022-10-08T16:17:40.714Z,95065.27
2022-10-08T16:20:31.709Z,95070.38
2022-10-08T16:23:08.598Z,95075.45
2022-10-08T16:25:45.492Z,95075.56
2022-10-08T16:28:13.257Z,95080.67
2022-10-08T16:30:40.665Z,95083.89
2022-10-08T16:33:10.888Z,95086.30
2022-10-08T16:38:24.369Z,95086.11
2022-10-08T16:40:53.285Z,95086.87
2022-10-08T16:46:56.481Z,95090.05
2022-10-08T16:49:41.114Z,95094.61
2022-10-08T16:58:00.902Z,95090.12
2022-10-08T17:00:42.855Z,95093.52
2022-10-08T17:03:18.917Z,95091.20
2022-10-08T17:05:46.117Z,95095.20
2022-10-08T17:11:21.885Z,95097.08
2022-10-08T17:13:51.699Z,95099.67
2022-10-08T17:16:26.188Z,95106.05
2022-10-08T17:18:55.680Z,95105.48
2022-10-08T17:21:23.336Z,95106.68
2022-10-08T17:23:50.736Z,95107.94
2022-10-08T17:26:20.467Z,95108.16
2022-10-08T17:28:48.699Z,95108.46
2022-10-08T17:31:31.958Z,95110.70
2022-10-08T17:34:04.586Z,95105.98
2022-10-08T17:36:34.689Z,95107.94
2022-10-08T17:39:05.673Z,95107.71
2022-10-08T17:44:50.634Z,95099.70
2022-10-08T17:47:48.471Z,95101.33
2022-10-08T17:50:20.056Z,95105.30
2022-10-08T17:52:47.609Z,95101.97
2022-10-08T17:55:17.067Z,95103.92
2022-10-08T17:57:45.315Z,95104.39
2022-10-08T18:00:13.009Z,95109.39
2022-10-08T18:02:39.799Z,95114.11
2022-10-08T18:05:07.310Z,95119.45
2022-10-08T18:07:34.662Z,95118.73
2022-10-08T18:10:01.519Z,95121.87
2022-10-08T18:12:29.148Z,95119.08
2022-10-08T18:14:56.576Z,95120.79
2022-10-08T18:17:23.569Z,95121.88
2022-10-08T18:19:50.370Z,95124.17
2022-10-08T18:22:17.764Z,95129.88
2022-10-08T18:24:44.609Z,95134.35
2022-10-08T18:27:11.804Z,95135.48
2022-10-08T18:29:39.067Z,95135.89
2022-10-08T18:32:05.828Z,95135.72
2022-10-08T18:34:33.085Z,95136.03
2022-10-08T18:37:00.181Z,95135.09
2022-10-08T18:39:28.641Z,95139.24
2022-10-08T18:41:55.825Z,95139.02
2022-10-08T18:44:26.423Z,95139.85
2022-10-08T18:46:53.739Z,95140.98
2022-10-08T18:49:31.021Z,95143.02
2022-10-08T18:51:59.179Z,95143.23
2022-10-08T18:54:26.557Z,95147.45
2022-10-08T18:56:56.022Z,95148.30
2022-10-08T18:59:24.592Z,95149.77
2022-10-08T19:01:53.109Z,95151.86
2022-10-08T19:04:23.037Z,95152.22
2022-10-08T19:06:53.805Z,95150.61
2022-10-08T19:09:21.526Z,95152.27
2022-10-08T19:11:51.733Z,95155.71
2022-10-08T19:14:22.208Z,95158.50
2022-10-08T19:16:49.207Z,95160.40
2022-10-08T19:19:18.581Z,95165.67
2022-10-08T19:21:46.209Z,95167.61
2022-10-08T19:24:16.766Z,95168.02
2022-10-08T19:26:44.617Z,95170.40
2022-10-08T19:29:16.715Z,95174.58
2022-10-08T19:31:47.984Z,95172.92
2022-10-08T19:34:17.970Z,95174.83
2022-10-08T19:36:45.737Z,95175.49
2022-10-08T19:39:23.014Z,95174.95
2022-10-08T19:41:52.323Z,95175.90
2022-10-08T19:44:20.187Z,95176.64
2022-10-08T19:46:48.621Z,95177.23
2022-10-08T19:49:16.686Z,95180.93
2022-10-08T19:51:46.345Z,95184.33
2022-10-08T19:54:15.004Z,95183.42
2022-10-08T19:56:42.631Z,95179.48
2022-10-08T19:59:12.255Z,95178.38
2022-10-08T20:01:41.562Z,95180.48
2022-10-08T20:04:09.665Z,95179.01
2022-10-08T20:06:40.129Z,95182.27
2022-10-08T20:09:13.175Z,95182.20
2022-10-08T20:11:49.352Z,95181.73
2022-10-08T20:14:16.305Z,95186.11
2022-10-08T20:16:44.247Z,95184.39
2022-10-08T20:19:21.255Z,95185.69
2022-10-08T20:21:49.500Z,95186.86
2022-10-08T20:24:22.253Z,95187.32
2022-10-08T20:26:54.971Z,95191.43
2022-10-08T20:29:26.272Z,95189.31
2022-10-08T20:31:56.050Z,95192.80
2022-10-08T20:34:27.472Z,95189.83
2022-10-08T20:36:55.386Z,95192.10
2022-10-08T20:39:22.591Z,95192.66
2022-10-08T20:41:50.743Z,95191.63
2022-10-08T20:44:17.934Z,95191.70
2022-10-08T20:46:44.908Z,95193.39
2022-10-08T20:49:13.367Z,95197.13
2022-10-08T20:51:42.229Z,95198.33
2022-10-08T20:54:12.154Z,95198.13
2022-10-08T20:56:40.635Z,95199.52
2022-10-08T20:59:08.793Z,95198.55
2022-10-08T21:01:38.601Z,95198.50
2022-10-08T21:04:07.145Z,95198.97
2022-10-08T21:06:40.469Z,95196.45
2022-10-08T21:09:08.442Z,95194.19
2022-10-08T21:11:36.460Z,95194.13
2022-10-08T21:14:03.885Z,95197.77
2022-10-08T21:16:40.629Z,95199.84
2022-10-08T21:19:11.992Z,95198.01
2022-10-08T21:21:39.134Z,95199.05
2022-10-08T21:24:06.252Z,95198.67
2022-10-08T21:26:36.821Z,95194.38
2022-10-08T21:29:06.798Z,95191.21
2022-10-08T21:31:36.041Z,95195.23
2022-10-08T21:34:03.886Z,95189.96
2022-10-08T21:36:36.902Z,95188.82
2022-10-08T21:39:06.842Z,95182.30
2022-10-08T21:41:35.589Z,95184.73
2022-10-08T21:44:05.488Z,95179.73
2022-10-08T21:46:36.678Z,95183.63
2022-10-08T21:49:21.765Z,95185.48
2022-10-08T21:51:48.914Z,95180.58
2022-10-08T21:54:18.324Z,95181.15
2022-10-08T21:56:45.782Z,95180.50
2022-10-08T21:59:15.290Z,95184.73
2022-10-08T22:01:49.118Z,95184.83
2022-10-08T22:04:21.784Z,95185.89
2022-10-08T22:06:51.367Z,95188.06
2022-10-08T22:09:24.493Z,95189.63
2022-10-08T22:11:53.193Z,95187.05
2022-10-08T22:14:20.659Z,95187.16
2022-10-08T22:16:47.805Z,95190.09
2022-10-08T22:19:15.891Z,95188.27
2022-10-08T22:21:46.375Z,95185.25
2022-10-08T22:24:13.303Z,95181.14
2022-10-08T22:26:43.365Z,95182.66
2022-10-08T22:29:11.014Z,95185.12
2022-10-08T22:31:38.099Z,95185.70
2022-10-08T22:34:05.081Z,95184.60
2022-10-08T22:36:33.235Z,95180.23
2022-10-08T22:39:00.239Z,95180.29
2022-10-08T22:41:29.806Z,95185.04
2022-10-08T22:43:57.274Z,95187.62
2022-10-08T22:46:30.117Z,95190.04
2022-10-08T22:49:02.285Z,95189.01
2022-10-08T22:51:29.826Z,95179.72
2022-10-08T22:53:57.303Z,95178.74
2022-10-08T22:56:29.492Z,95177.63
2022-10-08T22:58:57.937Z,95175.50
2022-10-08T23:01:26.621Z,95180.60
2022-10-08T23:03:53.821Z,95183.33
2022-10-08T23:06:32.817Z,95179.80
2022-10-08T23:09:01.948Z,95182.21
2022-10-08T23:11:30.255Z,95182.35
2022-10-08T23:13:58.838Z,95179.08
2022-10-08T23:16:27.579Z,95181.80
2022-10-08T23:19:02.184Z,95180.58
2022-10-08T23:21:29.610Z,95177.83
2022-10-08T23:23:57.165Z,95178.68
2022-10-08T23:26:25.041Z,95180.54
2022-10-08T23:28:54.632Z,95178.35
2022-10-08T23:31:24.687Z,95174.27
2022-10-08T23:33:53.152Z,95176.05
2022-10-08T23:36:23.542Z,95178.84
2022-10-08T23:38:50.917Z,95181.12
2022-10-08T23:41:17.853Z,95187.81
2022-10-08T23:43:47.363Z,95188.50
2022-10-08T23:46:17.518Z,95190.66
2022-10-08T23:48:44.596Z,95191.33
2022-10-08T23:51:13.031Z,95196.26
2022-10-08T23:53:40.634Z,95194.02
2022-10-08T23:56:08.645Z,95195.02
2022-10-08T23:58:35.909Z,95196.87
